createdAt,value
2018-09-17T00:22:52.430Z,1.77
2018-09-17T00:25:21.479Z,1.73
2018-09-17T00:27:50.042Z,2.30
2018-09-17T00:30:18.682Z,2.20
2018-09-17T00:32:47.166Z,2.33
2018-09-17T00:35:15.717Z,2.00
2018-09-17T00:37:44.274Z,1.87
2018-09-17T00:40:12.754Z,2.13
2018-09-17T00:42:41.454Z,1.90
2018-09-17T00:45:10.098Z,2.07
2018-09-17T00:47:38.814Z,2.30
2018-09-17T00:50:07.386Z,2.30
2018-09-17T00:52:36.001Z,2.40
2018-09-17T00:55:04.478Z,2.17
2018-09-17T00:57:33.077Z,2.57
2018-09-17T01:00:01.862Z,2.50
2018-09-17T01:02:30.342Z,2.70
2018-09-17T01:04:59.006Z,2.50
2018-09-17T01:07:27.581Z,2.47
2018-09-17T01:09:56.170Z,2.40
2018-09-17T01:12:24.766Z,2.37
2018-09-17T01:14:53.366Z,2.43
2018-09-17T01:17:21.968Z,2.90
2018-09-17T01:19:50.554Z,2.37
2018-09-17T01:22:19.338Z,2.20
2018-09-17T01:24:47.858Z,2.63
2018-09-17T01:27:16.676Z,2.80
2018-09-17T01:29:45.254Z,2.80
2018-09-17T01:32:13.867Z,2.40
2018-09-17T01:34:42.488Z,2.43
2018-09-17T01:37:11.026Z,2.20
2018-09-17T01:39:39.514Z,3.20
2018-09-17T01:42:08.034Z,2.57
2018-09-17T01:44:36.658Z,2.63
2018-09-17T01:47:05.754Z,2.87
2018-09-17T01:49:34.678Z,2.70
2018-09-17T01:52:03.199Z,2.57
2018-09-17T01:54:31.815Z,2.60
2018-09-17T01:57:00.286Z,2.37
2018-09-17T01:59:28.854Z,2.93
2018-09-17T02:01:57.366Z,2.27
2018-09-17T02:04:25.954Z,2.90
2018-09-17T02:06:54.606Z,2.40
2018-09-17T02:09:23.202Z,2.53
2018-09-17T02:11:51.829Z,2.20
2018-09-17T02:14:20.535Z,2.87
2018-09-17T02:16:49.154Z,2.80
2018-09-17T02:19:17.762Z,2.80
2018-09-17T02:21:46.528Z,2.80
2018-09-17T02:24:15.342Z,2.03
2018-09-17T02:26:43.962Z,2.33
2018-09-17T02:29:12.762Z,2.30
2018-09-17T02:31:41.366Z,2.03
2018-09-17T02:34:10.054Z,2.03
2018-09-17T02:36:38.602Z,1.73
2018-09-17T02:39:08.362Z,2.27
2018-09-17T02:41:36.840Z,1.77
2018-09-17T02:44:05.479Z,1.77
2018-09-17T02:46:34.063Z,1.53
2018-09-17T02:49:02.695Z,1.70
2018-09-17T02:51:31.346Z,1.63
2018-09-17T02:53:59.846Z,1.87
2018-09-17T02:56:28.722Z,1.90
2018-09-17T02:58:57.278Z,1.70
2018-09-17T03:01:25.874Z,1.70
2018-09-17T03:03:54.443Z,2.20
2018-09-17T03:06:23.050Z,1.70
2018-09-17T03:08:51.798Z,2.40
2018-09-17T03:11:20.381Z,1.77
2018-09-17T03:13:49.090Z,1.80
2018-09-17T03:16:17.611Z,1.83
2018-09-17T03:18:54.352Z,1.63
2018-09-17T03:21:23.041Z,1.70
2018-09-17T03:23:51.615Z,1.70
2018-09-17T03:26:20.758Z,1.93
2018-09-17T03:28:49.384Z,1.47
2018-09-17T03:31:18.234Z,1.60
2018-09-17T03:33:46.796Z,1.37
2018-09-17T03:36:15.517Z,1.67
2018-09-17T03:38:47.164Z,1.33
2018-09-17T03:41:16.830Z,1.80
2018-09-17T03:43:47.071Z,1.63
2018-09-17T03:46:15.884Z,1.57
2018-09-17T03:48:44.385Z,1.30
2018-09-17T03:51:13.710Z,1.40
2018-09-17T03:53:42.743Z,1.47
2018-09-17T03:56:11.387Z,1.20
2018-09-17T03:58:39.889Z,1.10
2018-09-17T04:01:08.486Z,1.40
2018-09-17T04:03:37.139Z,0.97
2018-09-17T04:06:05.701Z,1.10
2018-09-17T04:08:34.595Z,1.50
2018-09-17T04:11:03.180Z,1.10
2018-09-17T04:13:31.905Z,1.17
2018-09-17T04:16:00.386Z,1.27
2018-09-17T04:18:29.145Z,1.77
2018-09-17T04:20:58.230Z,1.40
2018-09-17T04:23:41.175Z,1.50
2018-09-17T04:26:11.097Z,1.40
2018-09-17T04:28:40.169Z,1.10
2018-09-17T04:31:08.742Z,1.13
2018-09-17T04:33:38.837Z,1.33
2018-09-17T04:36:07.801Z,1.10
2018-09-17T04:38:36.474Z,0.93
2018-09-17T04:41:05.362Z,0.77
2018-09-17T04:43:33.950Z,1.03
2018-09-17T04:46:02.630Z,1.13
2018-09-17T04:48:31.414Z,1.00
2018-09-17T04:51:00.575Z,1.03
2018-09-17T04:56:04.193Z,1.00
2018-09-17T04:58:32.783Z,1.30
2018-09-17T05:01:01.310Z,0.90
2018-09-17T05:03:29.886Z,1.00
2018-09-17T05:05:58.420Z,1.07
2018-09-17T05:08:26.962Z,1.10
2018-09-17T05:10:55.637Z,1.33
2018-09-17T05:13:24.225Z,1.10
2018-09-17T05:15:52.794Z,2.00
2018-09-17T05:18:21.358Z,1.37
2018-09-17T05:20:49.994Z,1.10
2018-09-17T05:23:18.555Z,1.00
2018-09-17T05:25:47.126Z,0.97
2018-09-17T05:28:17.830Z,1.13
2018-09-17T05:30:46.422Z,1.40
2018-09-17T05:33:14.994Z,1.17
2018-09-17T05:35:44.637Z,1.00
2018-09-17T05:38:13.282Z,1.20
2018-09-17T05:40:41.887Z,1.30
2018-09-17T05:43:12.852Z,0.97
2018-09-17T05:45:41.412Z,0.70
2018-09-17T05:48:10.838Z,1.03
2018-09-17T05:50:39.303Z,1.00
2018-09-17T05:53:07.993Z,0.70
2018-09-17T05:55:36.631Z,0.87
2018-09-17T05:58:05.347Z,1.13
2018-09-17T06:00:34.004Z,1.20
2018-09-17T06:03:02.647Z,1.10
2018-09-17T06:05:31.487Z,1.10
2018-09-17T06:08:00.929Z,1.60
2018-09-17T06:10:30.162Z,1.60
2018-09-17T06:12:58.802Z,1.37
2018-09-17T06:15:27.551Z,1.07
2018-09-17T06:17:56.087Z,0.70
2018-09-17T06:20:24.624Z,0.80
2018-09-17T06:22:54.324Z,0.70
2018-09-17T06:25:23.314Z,1.00
2018-09-17T06:27:51.967Z,0.70
2018-09-17T06:30:20.687Z,0.93
2018-09-17T06:32:49.177Z,0.90
2018-09-17T06:35:17.686Z,0.60
2018-09-17T06:37:46.678Z,0.70
2018-09-17T06:40:15.244Z,0.90
2018-09-17T06:42:45.241Z,0.50
2018-09-17T06:45:13.881Z,0.77
2018-09-17T06:47:42.812Z,1.13
2018-09-17T06:50:11.614Z,1.63
2018-09-17T06:52:40.730Z,1.17
2018-09-17T06:55:09.337Z,0.60
2018-09-17T06:57:39.753Z,1.00
2018-09-17T07:00:08.422Z,1.03
2018-09-17T07:02:37.107Z,1.13
2018-09-17T07:05:06.106Z,0.70
2018-09-17T07:07:34.730Z,0.80
2018-09-17T07:10:03.646Z,1.10
2018-09-17T07:12:32.137Z,1.00
2018-09-17T07:15:01.108Z,0.80
2018-09-17T07:17:29.630Z,0.60
2018-09-17T07:19:58.286Z,0.70
2018-09-17T07:22:28.803Z,0.60
2018-09-17T07:24:57.424Z,0.70
2018-09-17T07:27:26.019Z,0.80
2018-09-17T07:29:56.143Z,1.10
2018-09-17T07:32:24.778Z,0.80
2018-09-17T07:34:53.394Z,0.80
2018-09-17T07:37:21.958Z,0.60
2018-09-17T07:39:50.458Z,0.57
2018-09-17T07:42:19.138Z,1.03
2018-09-17T07:44:47.646Z,1.00
2018-09-17T07:47:16.409Z,0.70
2018-09-17T07:49:44.974Z,1.00
2018-09-17T07:52:15.024Z,0.70
2018-09-17T07:54:43.574Z,0.87
2018-09-17T07:57:12.110Z,0.80
2018-09-17T07:59:40.810Z,0.93
2018-09-17T08:02:09.273Z,0.70
2018-09-17T08:04:38.658Z,0.93
2018-09-17T08:07:07.327Z,1.00
2018-09-17T08:09:35.978Z,0.90
2018-09-17T08:12:04.564Z,0.97
2018-09-17T08:14:37.849Z,0.93
2018-09-17T08:17:06.567Z,0.80
2018-09-17T08:19:35.432Z,1.17
2018-09-17T08:22:05.091Z,0.67
2018-09-17T08:24:34.400Z,0.60
2018-09-17T08:27:02.885Z,0.80
2018-09-17T08:29:32.302Z,0.60
2018-09-17T08:32:00.804Z,1.07
2018-09-17T08:34:29.796Z,0.95
2018-09-17T08:36:58.298Z,1.20
2018-09-17T08:39:27.438Z,0.93
2018-09-17T08:41:55.962Z,0.90
2018-09-17T08:44:24.599Z,1.02
2018-09-17T08:46:53.222Z,1.10
2018-09-17T08:49:21.805Z,0.90
2018-09-17T08:51:50.330Z,0.85
2018-09-17T08:54:18.868Z,1.00
2018-09-17T08:56:52.797Z,0.90
2018-09-17T08:59:26.398Z,1.10
2018-09-17T09:01:59.990Z,0.90
2018-09-17T09:04:33.930Z,1.07
2018-09-17T09:07:07.350Z,1.17
2018-09-17T09:09:36.702Z,1.07
2018-09-17T09:12:10.510Z,1.00
2018-09-17T09:14:40.298Z,0.93
2018-09-17T09:17:10.639Z,0.70
2018-09-17T09:19:39.851Z,1.40
2018-09-17T09:22:08.610Z,0.82
2018-09-17T09:24:37.109Z,0.80
2018-09-17T09:27:05.845Z,0.93
2018-09-17T09:29:34.350Z,0.80
2018-09-17T09:34:37.466Z,1.05
2018-09-17T09:37:06.290Z,0.90
2018-09-17T09:39:34.934Z,0.82
2018-09-17T09:42:03.727Z,0.68
2018-09-17T09:44:32.246Z,0.70
2018-09-17T09:47:00.729Z,0.85
2018-09-17T09:49:29.302Z,2.12
2018-09-17T09:51:57.758Z,1.27
2018-09-17T09:54:26.625Z,1.37
2018-09-17T09:56:55.118Z,0.80
2018-09-17T09:59:24.047Z,0.98
2018-09-17T10:01:58.764Z,1.00
2018-09-17T10:04:27.365Z,0.90
2018-09-17T10:06:55.953Z,0.95
2018-09-17T10:09:29.714Z,1.05
2018-09-17T10:12:03.730Z,1.22
2018-09-17T10:14:37.586Z,1.07
2018-09-17T10:17:11.434Z,1.32
2018-09-17T10:19:45.172Z,0.65
2018-09-17T10:22:13.631Z,0.90
2018-09-17T10:24:42.334Z,1.12
2018-09-17T10:27:10.803Z,0.80
2018-09-17T10:29:39.620Z,1.80
2018-09-17T10:32:08.426Z,1.20
2018-09-17T10:34:37.052Z,1.15
2018-09-17T10:37:05.994Z,1.25
2018-09-17T10:39:34.574Z,1.40
2018-09-17T10:42:04.834Z,0.72
2018-09-17T10:44:33.374Z,1.25
2018-09-17T10:47:02.591Z,1.00
2018-09-17T10:49:31.054Z,1.02
2018-09-17T10:52:00.218Z,1.40
2018-09-17T10:54:28.738Z,1.30
2018-09-17T10:57:01.426Z,0.72
2018-09-17T10:59:30.034Z,1.00
2018-09-17T11:01:59.562Z,0.85
2018-09-17T11:04:28.185Z,0.80
2018-09-17T11:06:57.566Z,0.98
2018-09-17T11:09:26.070Z,0.80
2018-09-17T11:11:54.934Z,1.00
2018-09-17T11:14:24.429Z,0.70
2018-09-17T11:16:53.562Z,0.75
2018-09-17T11:19:24.203Z,0.75
2018-09-17T11:21:52.933Z,0.78
2018-09-17T11:24:21.601Z,1.40
2018-09-17T11:26:51.082Z,1.00
2018-09-17T11:29:26.562Z,0.98
2018-09-17T11:31:56.126Z,1.27
2018-09-17T11:34:25.007Z,0.57
2018-09-17T11:36:53.578Z,0.70
2018-09-17T11:39:22.130Z,1.00
2018-09-17T11:41:51.571Z,0.95
2018-09-17T11:44:20.167Z,0.98
2018-09-17T11:46:49.227Z,1.60
2018-09-17T11:49:17.751Z,0.90
2018-09-17T11:51:46.568Z,0.90
2018-09-17T11:54:16.898Z,0.98
2018-09-17T11:56:45.826Z,1.10
2018-09-17T11:59:14.306Z,0.98
2018-09-17T12:01:48.201Z,1.00
2018-09-17T12:04:21.730Z,0.80
2018-09-17T12:07:59.166Z,0.72
2018-09-17T12:10:31.226Z,1.00
2018-09-17T12:13:01.418Z,0.50
2018-09-17T12:15:30.194Z,1.20
2018-09-17T12:18:01.216Z,0.80
2018-09-17T12:20:29.800Z,0.95
2018-09-17T12:23:00.396Z,0.80
2018-09-17T12:25:29.090Z,0.75
2018-09-17T12:28:00.685Z,0.40
2018-09-17T12:30:29.348Z,1.10
2018-09-17T12:32:57.901Z,4.30
2018-09-17T12:35:27.743Z,1.42
2018-09-17T12:37:56.633Z,1.25
2018-09-17T12:40:26.226Z,1.00
2018-09-17T12:42:55.288Z,1.02
2018-09-17T12:45:25.626Z,0.60
2018-09-17T12:47:54.742Z,0.80
2018-09-17T12:50:25.938Z,1.05
2018-09-17T12:52:54.404Z,0.70
2018-09-17T12:55:23.141Z,0.78
2018-09-17T12:57:51.751Z,0.70
2018-09-17T13:00:20.217Z,0.60
2018-09-17T13:02:49.073Z,0.62
2018-09-17T13:05:17.570Z,0.80
2018-09-17T13:07:46.416Z,0.70
2018-09-17T13:12:39.207Z,1.02
2018-09-17T13:15:08.346Z,0.93
2018-09-17T13:17:37.135Z,1.45
2018-09-17T13:20:06.389Z,0.90
2018-09-17T13:22:34.882Z,1.05
2018-09-17T13:25:03.670Z,1.07
2018-09-17T13:27:32.342Z,1.10
2018-09-17T13:30:00.870Z,1.00
2018-09-17T13:32:29.522Z,0.80
2018-09-17T13:34:58.582Z,0.57
2018-09-17T13:37:27.173Z,1.02
2018-09-17T13:39:55.706Z,1.00
2018-09-17T13:42:24.569Z,1.00
2018-09-17T13:44:53.054Z,0.88
2018-09-17T13:47:21.806Z,0.88
2018-09-17T13:49:51.206Z,1.00
2018-09-17T13:52:19.772Z,1.22
2018-09-17T13:54:48.479Z,1.40
2018-09-17T13:57:17.113Z,0.95
2018-09-17T13:59:45.599Z,1.20
2018-09-17T14:02:14.176Z,0.95
2018-09-17T14:04:43.030Z,0.75
2018-09-17T14:07:11.584Z,0.93
2018-09-17T14:09:40.304Z,0.78
2018-09-17T14:12:08.794Z,0.70
2018-09-17T14:14:37.514Z,1.00
2018-09-17T14:17:06.266Z,0.68
2018-09-17T14:19:34.774Z,0.82
2018-09-17T14:22:03.706Z,2.70
2018-09-17T14:24:32.166Z,1.33
2018-09-17T14:27:01.166Z,0.78
2018-09-17T14:29:29.723Z,1.10
2018-09-17T14:32:03.580Z,0.95
2018-09-17T14:34:32.086Z,1.00
2018-09-17T14:37:00.898Z,1.20
2018-09-17T14:39:29.433Z,0.82
2018-09-17T14:41:58.660Z,0.68
2018-09-17T14:44:27.135Z,0.72
2018-09-17T14:46:55.794Z,0.80
2018-09-17T14:49:24.326Z,1.10
2018-09-17T14:51:52.905Z,0.90
2018-09-17T14:54:24.249Z,1.17
2018-09-17T14:57:06.664Z,0.95
2018-09-17T14:59:38.018Z,0.70
2018-09-17T15:02:07.524Z,1.10
2018-09-17T15:04:36.796Z,1.20
2018-09-17T15:07:09.286Z,0.80
2018-09-17T15:09:37.908Z,0.90
2018-09-17T15:12:07.948Z,1.00
2018-09-17T15:14:39.800Z,1.17
2018-09-17T15:17:09.391Z,0.90
2018-09-17T15:19:41.478Z,1.00
2018-09-17T15:22:16.850Z,0.95
2018-09-17T15:24:45.894Z,1.00
2018-09-17T15:27:19.412Z,1.20
2018-09-17T15:29:51.695Z,1.25
2018-09-17T15:32:21.738Z,0.88
2018-09-17T15:34:52.259Z,1.02
2018-09-17T15:37:24.921Z,1.17
2018-09-17T15:39:54.195Z,1.00
2018-09-17T15:42:25.776Z,1.00
2018-09-17T15:44:56.731Z,1.05
2018-09-17T15:47:29.785Z,1.25
2018-09-17T15:50:00.090Z,1.50
2018-09-17T15:52:31.098Z,1.32
2018-09-17T15:55:03.212Z,1.60
2018-09-17T15:57:36.308Z,1.95
2018-09-17T16:00:08.110Z,1.25
2018-09-17T16:02:37.818Z,1.25
2018-09-17T16:05:10.619Z,1.50
2018-09-17T16:07:40.080Z,1.27
2018-09-17T16:10:10.283Z,1.20
2018-09-17T16:12:39.622Z,1.22
2018-09-17T16:15:08.261Z,1.50
2018-09-17T16:17:36.863Z,1.20
2018-09-17T16:20:08.420Z,1.32
2018-09-17T16:22:38.800Z,1.50
2018-09-17T16:25:10.426Z,1.40
2018-09-17T16:27:41.004Z,1.27
2018-09-17T16:30:13.980Z,1.00
2018-09-17T16:32:51.793Z,1.30
2018-09-17T16:35:23.150Z,1.33
2018-09-17T16:37:55.446Z,3.60
2018-09-17T16:40:26.940Z,1.23
2018-09-17T16:42:58.010Z,1.30
2018-09-17T16:45:33.161Z,1.17
2018-09-17T16:48:07.186Z,1.35
2018-09-17T16:50:53.547Z,1.30
2018-09-17T16:53:23.309Z,1.70
2018-09-17T16:55:53.988Z,1.53
2018-09-17T16:58:24.756Z,1.37
2018-09-17T17:00:56.312Z,1.37
2018-09-17T17:03:25.500Z,1.10
2018-09-17T17:05:56.742Z,1.43
2018-09-17T17:08:31.311Z,1.40
2018-09-17T17:11:02.848Z,1.27
2018-09-17T17:13:33.743Z,1.27
2018-09-17T17:16:04.310Z,1.50
2018-09-17T17:18:35.333Z,1.27
2018-09-17T17:21:09.017Z,1.70
2018-09-17T17:23:40.300Z,1.97
2018-09-17T17:26:10.750Z,1.50
2018-09-17T17:28:41.599Z,1.70
2018-09-17T17:31:11.118Z,1.87
2018-09-17T17:33:39.939Z,1.63
2018-09-17T17:36:09.414Z,2.17
2018-09-17T17:38:47.228Z,1.97
2018-09-17T17:41:20.415Z,1.57
2018-09-17T17:46:29.156Z,1.40
2018-09-17T17:49:00.787Z,1.53
2018-09-17T17:51:30.686Z,1.20
2018-09-17T17:54:02.246Z,1.57
2018-09-17T17:56:30.958Z,1.30
2018-09-17T17:58:59.539Z,1.40
2018-09-17T18:01:28.302Z,1.27
2018-09-17T18:03:56.947Z,0.90
2018-09-17T18:06:26.572Z,1.00
2018-09-17T18:08:56.239Z,1.10
2018-09-17T18:11:24.822Z,1.50
2018-09-17T18:13:55.560Z,1.37
2018-09-17T18:16:29.791Z,1.43
2018-09-17T18:18:59.905Z,1.37
2018-09-17T18:21:28.658Z,1.57
2018-09-17T18:26:34.154Z,1.30
2018-09-17T18:29:05.247Z,1.10
2018-09-17T18:31:33.738Z,1.17
2018-09-17T18:34:02.227Z,0.90
2018-09-17T18:36:33.189Z,1.50
2018-09-17T18:39:02.395Z,2.20
2018-09-17T18:41:31.138Z,1.50
2018-09-17T18:43:59.750Z,1.27
2018-09-17T18:46:28.771Z,1.20
2018-09-17T18:48:57.267Z,1.40
2018-09-17T18:51:30.589Z,1.20
2018-09-17T18:53:59.564Z,1.17
2018-09-17T18:56:28.389Z,1.40
2018-09-17T18:58:57.082Z,1.00
2018-09-17T19:01:25.591Z,0.80
2018-09-17T19:03:54.180Z,1.07
2018-09-17T19:06:22.895Z,1.00
2018-09-17T19:08:51.494Z,1.53
2018-09-17T19:11:20.197Z,1.20
2018-09-17T19:13:53.827Z,1.20
2018-09-17T19:16:27.466Z,1.17
2018-09-17T19:18:56.310Z,1.00
2018-09-17T19:21:29.196Z,1.13
2018-09-17T19:24:01.880Z,1.10
2018-09-17T19:26:30.762Z,1.00
2018-09-17T19:29:04.793Z,1.10
2018-09-17T19:31:33.487Z,0.97
2018-09-17T19:34:02.129Z,0.70
2018-09-17T19:36:30.753Z,1.53
2018-09-17T19:39:04.590Z,1.10
2018-09-17T19:41:33.233Z,0.93
2018-09-17T19:44:02.733Z,1.13
2018-09-17T19:46:31.299Z,1.20
2018-09-17T19:49:00.040Z,1.00
2018-09-17T19:51:33.918Z,0.87
2018-09-17T19:54:02.432Z,1.30
2018-09-17T19:56:30.930Z,1.20
2018-09-17T20:00:07.477Z,1.10
2018-09-17T20:02:36.069Z,1.23
2018-09-17T20:05:10.809Z,1.00
2018-09-17T20:07:39.593Z,1.37
2018-09-17T20:10:08.307Z,0.73
2018-09-17T20:12:36.965Z,1.30
2018-09-17T20:15:06.508Z,1.00
2018-09-17T20:17:35.483Z,1.40
2018-09-17T20:20:04.219Z,1.93
2018-09-17T20:22:32.873Z,1.17
2018-09-17T20:25:01.414Z,0.93
2018-09-17T20:27:29.958Z,1.17
2018-09-17T20:29:58.722Z,1.00
2018-09-17T20:32:27.342Z,1.27
2018-09-17T20:34:56.204Z,0.90
2018-09-17T20:37:24.738Z,1.03
2018-09-17T20:39:53.350Z,1.17
2018-09-17T20:42:21.910Z,1.40
2018-09-17T20:44:50.524Z,0.90
2018-09-17T20:47:19.074Z,1.37
2018-09-17T20:49:47.653Z,1.40
2018-09-17T20:52:16.442Z,0.87
2018-09-17T20:54:44.962Z,1.17
2018-09-17T20:57:13.545Z,1.20
2018-09-17T20:59:42.185Z,1.43
2018-09-17T21:02:11.359Z,1.27
2018-09-17T21:04:39.930Z,1.20
2018-09-17T21:07:08.399Z,0.80
2018-09-17T21:09:37.087Z,1.33
2018-09-17T21:12:05.760Z,1.10
2018-09-17T21:14:35.158Z,1.50
2018-09-17T21:17:03.801Z,1.37
2018-09-17T21:19:32.862Z,1.60
2018-09-17T21:22:01.317Z,1.27
2018-09-17T21:24:29.873Z,1.60
2018-09-17T21:26:58.423Z,1.07
2018-09-17T21:29:27.159Z,1.33
2018-09-17T21:31:55.708Z,1.37
2018-09-17T21:34:24.291Z,1.43
2018-09-17T21:36:53.517Z,1.43
2018-09-17T21:39:21.926Z,1.50
2018-09-17T21:41:50.612Z,1.53
2018-09-17T21:44:19.237Z,1.27
2018-09-17T21:46:48.000Z,1.80
2018-09-17T21:49:16.634Z,1.57
2018-09-17T21:51:45.440Z,2.33
2018-09-17T21:54:13.955Z,1.60
2018-09-17T21:56:42.500Z,1.87
2018-09-17T21:59:11.963Z,2.17
2018-09-17T22:01:40.460Z,1.83
2018-09-17T22:04:09.426Z,2.03
2018-09-17T22:06:37.895Z,1.90
2018-09-17T22:09:08.086Z,1.83
2018-09-17T22:11:36.612Z,2.30
2018-09-17T22:14:05.552Z,2.37
2018-09-17T22:16:34.296Z,1.80
2018-09-17T22:19:02.850Z,2.90
2018-09-17T22:21:31.355Z,2.47
2018-09-17T22:23:59.822Z,2.23
2018-09-17T22:26:28.935Z,2.70
2018-09-17T22:28:57.459Z,2.93
2018-09-17T22:31:26.260Z,3.40
2018-09-17T22:33:54.858Z,2.60
2018-09-17T22:36:23.499Z,3.83
2018-09-17T22:38:52.042Z,3.13
2018-09-17T22:41:20.580Z,3.40
2018-09-17T22:43:49.153Z,3.33
2018-09-17T22:46:17.626Z,3.67
2018-09-17T22:48:46.511Z,3.67
2018-09-17T22:51:14.989Z,3.60
2018-09-17T22:53:43.769Z,3.20
2018-09-17T22:56:12.403Z,3.10
2018-09-17T22:58:41.120Z,3.00
2018-09-17T23:01:09.622Z,3.10
2018-09-17T23:03:38.150Z,3.13
2018-09-17T23:06:06.642Z,2.90
2018-09-17T23:08:35.169Z,3.47
2018-09-17T23:11:03.941Z,2.87
2018-09-17T23:13:32.662Z,3.30
2018-09-17T23:16:01.359Z,3.17
2018-09-17T23:18:29.955Z,3.10
2018-09-17T23:20:58.667Z,3.42
2018-09-17T23:23:27.286Z,3.03
2018-09-17T23:25:55.960Z,4.17
2018-09-17T23:28:24.451Z,5.20
2018-09-17T23:30:53.034Z,2.70
2018-09-17T23:33:21.850Z,3.03
2018-09-17T23:35:50.298Z,2.52
2018-09-17T23:38:18.820Z,2.83
2018-09-17T23:40:47.494Z,2.50
2018-09-17T23:43:16.062Z,2.93
2018-09-17T23:45:44.625Z,3.20
2018-09-17T23:48:13.173Z,2.43
2018-09-17T23:50:42.009Z,2.70
2018-09-17T23:53:10.564Z,2.63
2018-09-17T23:55:39.434Z,2.87
2018-09-17T23:58:08.040Z,2.90
